Celje, Slovenia

11:33 PM CEST on April 26, 2017 (GMT +0200)
Cesta na Dobrovo | | Change Station

Elev 797 ft 46.25 °N, 15.27 °E | Updated 5 minutes ago

Rain
Rain
54.5 °F
Feels Like 54.5 °F
N
0.0
Wind Variable Wind from North
Gusts 1.2 mph

Today
High -- | Low -- °F
--% Chance of Precip.
Yesterday
High -- | Low -- °F
Precip. -- in
Pressure 29.80 in
Visibility 6.2 miles
Clouds Overcast 5000 ft
Dew Point 50 °F
Humidity 85%
Rainfall 0.00 in
Snow Depth Not available.
5:53 AM 8:00 PM
New Moon, 0% visible
METAR LJMB 262100Z AUTO 16005KT 9999 OVC050/// 15/06 Q1009
Pressure 29.80 in
Visibility 6.2 miles
Clouds Overcast 5000 ft
Dew Point 50 °F
Humidity 85%
Rainfall 0.00 in
Snow Depth Not available.
5:53 AM 8:00 PM
New Moon, 0% visible
METAR LJMB 262100Z AUTO 16005KT 9999 OVC050/// 15/06 Q1009

Get Severe Weather Alerts

Thanks for signing up!

Be on the lookout for a verification email in your inbox.

You'll start receiving the daily forecast at 8 AM.

×

10-Day Weather Forecast

×

Almanac

Astronomy

Apr. 26, 2017 Rise Set
Actual Time
Civil Twilight
Nautical Twilight
Astronomical Twilight
Moon
Length of Visible Light
Length of Day
Tomorrow will be .
, % of the Moon is Illuminated

Today's Extremes

Country Highs Country Lows

Community

WunderPhotos

WunderBlog® & News

Nearby

Air Quality

  Air Quality AQ Index Pollutant
Not available.

Snow Depth

Station Depth Elevation

Earthquake Activity

City Distance Mag. Time & Date
Minimum magnitude displayed is 2.5.

Coastal Water Temperatures

Place Temperature

Stations

Nearby Weather Stations

Station Location Temp. Windchill Dew Point Humidity Wind Precip. Elev Updated Type